sensor_id;sensor_type;location;lat;lon;timestamp;P1;durP1;ratioP1;P2;durP2;ratioP2
6077;SDS011;3067;49.470;10.394;2023-09-07T00:00:00;6.20;;;5.80;;
6077;SDS011;3067;49.470;10.394;2023-09-07T00:02:31;12.30;;;6.27;;
6077;SDS011;3067;49.470;10.394;2023-09-07T00:04:59;11.17;;;6.20;;
6077;SDS011;3067;49.470;10.394;2023-09-07T00:07:26;7.70;;;6.47;;
6077;SDS011;3067;49.470;10.394;2023-09-07T00:09:53;9.73;;;6.10;;
6077;SDS011;3067;49.470;10.394;2023-09-07T00:12:20;7.70;;;6.83;;
6077;SDS011;3067;49.470;10.394;2023-09-07T00:14:47;8.83;;;6.90;;
6077;SDS011;3067;49.470;10.394;2023-09-07T00:17:14;6.70;;;6.00;;
6077;SDS011;3067;49.470;10.394;2023-09-07T00:19:42;6.73;;;6.17;;
6077;SDS011;3067;49.470;10.394;2023-09-07T00:22:11;8.23;;;6.07;;
6077;SDS011;3067;49.470;10.394;2023-09-07T00:24:38;6.83;;;6.23;;
6077;SDS011;3067;49.470;10.394;2023-09-07T00:27:05;7.07;;;6.40;;
6077;SDS011;3067;49.470;10.394;2023-09-07T00:29:33;7.07;;;6.37;;
6077;SDS011;3067;49.470;10.394;2023-09-07T00:32:01;12.97;;;7.37;;
6077;SDS011;3067;49.470;10.394;2023-09-07T00:34:28;8.17;;;6.33;;
6077;SDS011;3067;49.470;10.394;2023-09-07T00:36:56;14.57;;;6.40;;
6077;SDS011;3067;49.470;10.394;2023-09-07T00:39:23;8.60;;;6.80;;
6077;SDS011;3067;49.470;10.394;2023-09-07T00:41:50;7.10;;;6.50;;
6077;SDS011;3067;49.470;10.394;2023-09-07T00:44:17;7.33;;;6.53;;
6077;SDS011;3067;49.470;10.394;2023-09-07T00:46:44;9.63;;;7.10;;
6077;SDS011;3067;49.470;10.394;2023-09-07T00:49:12;6.80;;;6.20;;
6077;SDS011;3067;49.470;10.394;2023-09-07T00:51:40;8.40;;;6.47;;
6077;SDS011;3067;49.470;10.394;2023-09-07T00:54:08;7.30;;;5.90;;
6077;SDS011;3067;49.470;10.394;2023-09-07T00:56:35;7.67;;;6.30;;
6077;SDS011;3067;49.470;10.394;2023-09-07T00:59:03;8.87;;;6.30;;
6077;SDS011;3067;49.470;10.394;2023-09-07T01:01:32;7.10;;;6.27;;
6077;SDS011;3067;49.470;10.394;2023-09-07T01:03:59;8.97;;;6.03;;
6077;SDS011;3067;49.470;10.394;2023-09-07T01:06:29;6.90;;;6.30;;
6077;SDS011;3067;49.470;10.394;2023-09-07T01:09:01;9.77;;;6.40;;
6077;SDS011;3067;49.470;10.394;2023-09-07T01:11:37;12.00;;;6.67;;
6077;SDS011;3067;49.470;10.394;2023-09-07T01:14:04;13.63;;;7.63;;
6077;SDS011;3067;49.470;10.394;2023-09-07T01:16:31;9.83;;;7.13;;
6077;SDS011;3067;49.470;10.394;2023-09-07T01:19:00;8.97;;;6.83;;
6077;SDS011;3067;49.470;10.394;2023-09-07T01:21:33;7.50;;;6.67;;
6077;SDS011;3067;49.470;10.394;2023-09-07T01:24:01;9.13;;;6.90;;
6077;SDS011;3067;49.470;10.394;2023-09-07T01:26:30;10.43;;;6.87;;
6077;SDS011;3067;49.470;10.394;2023-09-07T01:28:58;10.53;;;6.90;;
6077;SDS011;3067;49.470;10.394;2023-09-07T01:31:25;7.57;;;6.87;;
6077;SDS011;3067;49.470;10.394;2023-09-07T01:33:52;7.87;;;6.73;;
6077;SDS011;3067;49.470;10.394;2023-09-07T01:36:19;9.77;;;6.80;;
6077;SDS011;3067;49.470;10.394;2023-09-07T01:38:47;12.03;;;6.87;;
6077;SDS011;3067;49.470;10.394;2023-09-07T01:41:14;7.83;;;6.50;;
6077;SDS011;3067;49.470;10.394;2023-09-07T01:46:11;8.47;;;7.50;;
6077;SDS011;3067;49.470;10.394;2023-09-07T01:48:38;9.77;;;6.80;;
6077;SDS011;3067;49.470;10.394;2023-09-07T01:51:07;10.90;;;7.37;;
6077;SDS011;3067;49.470;10.394;2023-09-07T01:53:34;8.43;;;6.73;;
6077;SDS011;3067;49.470;10.394;2023-09-07T01:56:03;7.80;;;6.60;;
6077;SDS011;3067;49.470;10.394;2023-09-07T02:03:33;7.73;;;6.53;;
6077;SDS011;3067;49.470;10.394;2023-09-07T02:06:00;8.93;;;6.60;;
6077;SDS011;3067;49.470;10.394;2023-09-07T02:08:27;8.20;;;7.20;;
6077;SDS011;3067;49.470;10.394;2023-09-07T02:10:54;7.50;;;6.80;;
6077;SDS011;3067;49.470;10.394;2023-09-07T02:13:23;7.40;;;6.80;;
6077;SDS011;3067;49.470;10.394;2023-09-07T02:15:50;7.50;;;6.80;;
6077;SDS011;3067;49.470;10.394;2023-09-07T02:18:17;10.33;;;6.50;;
6077;SDS011;3067;49.470;10.394;2023-09-07T02:20:45;7.57;;;6.93;;
6077;SDS011;3067;49.470;10.394;2023-09-07T02:23:12;8.03;;;6.80;;
6077;SDS011;3067;49.470;10.394;2023-09-07T02:25:40;7.10;;;6.07;;
6077;SDS011;3067;49.470;10.394;2023-09-07T02:28:07;8.70;;;6.80;;
6077;SDS011;3067;49.470;10.394;2023-09-07T02:30:35;8.50;;;6.80;;
6077;SDS011;3067;49.470;10.394;2023-09-07T02:33:03;7.43;;;6.73;;
6077;SDS011;3067;49.470;10.394;2023-09-07T02:35:30;8.07;;;7.07;;
6077;SDS011;3067;49.470;10.394;2023-09-07T02:37:57;7.47;;;6.73;;
6077;SDS011;3067;49.470;10.394;2023-09-07T02:40:24;7.17;;;6.47;;
6077;SDS011;3067;49.470;10.394;2023-09-07T02:42:51;11.90;;;7.33;;
6077;SDS011;3067;49.470;10.394;2023-09-07T02:45:18;7.00;;;6.23;;
6077;SDS011;3067;49.470;10.394;2023-09-07T02:47:47;12.93;;;6.77;;
6077;SDS011;3067;49.470;10.394;2023-09-07T02:50:15;6.60;;;6.00;;
6077;SDS011;3067;49.470;10.394;2023-09-07T02:52:43;9.60;;;6.30;;
6077;SDS011;3067;49.470;10.394;2023-09-07T02:55:10;7.77;;;6.60;;
6077;SDS011;3067;49.470;10.394;2023-09-07T02:57:37;11.50;;;6.63;;
6077;SDS011;3067;49.470;10.394;2023-09-07T03:00:04;7.30;;;6.53;;
6077;SDS011;3067;49.470;10.394;2023-09-07T03:02:36;9.30;;;6.00;;
6077;SDS011;3067;49.470;10.394;2023-09-07T03:05:05;10.90;;;7.23;;
6077;SDS011;3067;49.470;10.394;2023-09-07T03:07:33;9.73;;;6.50;;
6077;SDS011;3067;49.470;10.394;2023-09-07T03:10:00;7.80;;;6.63;;
6077;SDS011;3067;49.470;10.394;2023-09-07T03:12:27;8.43;;;6.50;;
6077;SDS011;3067;49.470;10.394;2023-09-07T03:14:55;7.10;;;6.40;;
6077;SDS011;3067;49.470;10.394;2023-09-07T03:17:22;8.73;;;6.40;;
6077;SDS011;3067;49.470;10.394;2023-09-07T03:19:49;6.60;;;5.90;;
6077;SDS011;3067;49.470;10.394;2023-09-07T03:22:17;6.77;;;6.17;;
6077;SDS011;3067;49.470;10.394;2023-09-07T03:24:45;9.43;;;6.10;;
6077;SDS011;3067;49.470;10.394;2023-09-07T03:27:12;7.00;;;6.40;;
6077;SDS011;3067;49.470;10.394;2023-09-07T03:29:39;7.37;;;6.77;;
6077;SDS011;3067;49.470;10.394;2023-09-07T03:32:06;7.53;;;6.40;;
6077;SDS011;3067;49.470;10.394;2023-09-07T03:34:33;7.33;;;6.57;;
6077;SDS011;3067;49.470;10.394;2023-09-07T03:37:00;7.37;;;6.67;;
6077;SDS011;3067;49.470;10.394;2023-09-07T03:39:32;7.97;;;6.57;;
6077;SDS011;3067;49.470;10.394;2023-09-07T03:41:59;11.13;;;6.50;;
6077;SDS011;3067;49.470;10.394;2023-09-07T03:44:26;7.83;;;6.80;;
6077;SDS011;3067;49.470;10.394;2023-09-07T03:46:53;9.13;;;6.90;;
6077;SDS011;3067;49.470;10.394;2023-09-07T03:49:20;9.50;;;6.60;;
6077;SDS011;3067;49.470;10.394;2023-09-07T03:51:47;7.40;;;6.63;;
6077;SDS011;3067;49.470;10.394;2023-09-07T03:54:15;7.80;;;7.10;;
6077;SDS011;3067;49.470;10.394;2023-09-07T03:56:43;10.80;;;6.90;;
6077;SDS011;3067;49.470;10.394;2023-09-07T03:59:11;8.70;;;6.63;;
6077;SDS011;3067;49.470;10.394;2023-09-07T04:01:38;9.23;;;6.80;;
6077;SDS011;3067;49.470;10.394;2023-09-07T04:04:05;17.97;;;7.47;;
6077;SDS011;3067;49.470;10.394;2023-09-07T04:06:32;14.77;;;7.30;;
6077;SDS011;3067;49.470;10.394;2023-09-07T04:08:59;9.77;;;6.97;;
6077;SDS011;3067;49.470;10.394;2023-09-07T04:11:26;18.53;;;6.70;;
6077;SDS011;3067;49.470;10.394;2023-09-07T04:13:54;7.50;;;6.50;;
6077;SDS011;3067;49.470;10.394;2023-09-07T04:16:22;12.90;;;7.20;;
6077;SDS011;3067;49.470;10.394;2023-09-07T04:18:49;7.83;;;7.00;;
6077;SDS011;3067;49.470;10.394;2023-09-07T04:21:16;7.90;;;7.00;;
6077;SDS011;3067;49.470;10.394;2023-09-07T04:23:43;10.07;;;7.23;;
6077;SDS011;3067;49.470;10.394;2023-09-07T04:26:10;7.63;;;6.90;;
6077;SDS011;3067;49.470;10.394;2023-09-07T04:28:38;8.00;;;7.20;;
6077;SDS011;3067;49.470;10.394;2023-09-07T04:31:06;9.70;;;7.77;;
6077;SDS011;3067;49.470;10.394;2023-09-07T04:33:33;12.10;;;8.20;;
6077;SDS011;3067;49.470;10.394;2023-09-07T04:36:06;10.30;;;8.57;;
6077;SDS011;3067;49.470;10.394;2023-09-07T04:38:35;9.80;;;7.80;;
6077;SDS011;3067;49.470;10.394;2023-09-07T04:41:05;12.70;;;8.10;;
6077;SDS011;3067;49.470;10.394;2023-09-07T04:43:33;9.93;;;7.50;;
6077;SDS011;3067;49.470;10.394;2023-09-07T04:46:00;8.80;;;8.00;;
6077;SDS011;3067;49.470;10.394;2023-09-07T04:48:29;10.07;;;8.00;;
6077;SDS011;3067;49.470;10.394;2023-09-07T04:50:59;9.20;;;7.53;;
6077;SDS011;3067;49.470;10.394;2023-09-07T04:53:27;9.23;;;7.57;;
6077;SDS011;3067;49.470;10.394;2023-09-07T04:55:55;10.80;;;8.40;;
6077;SDS011;3067;49.470;10.394;2023-09-07T04:58:23;18.23;;;8.70;;
6077;SDS011;3067;49.470;10.394;2023-09-07T05:00:50;35.23;;;9.37;;
6077;SDS011;3067;49.470;10.394;2023-09-07T05:03:17;23.63;;;9.17;;
6077;SDS011;3067;49.470;10.394;2023-09-07T05:05:50;20.00;;;8.37;;
6077;SDS011;3067;49.470;10.394;2023-09-07T05:08:17;14.23;;;8.73;;
6077;SDS011;3067;49.470;10.394;2023-09-07T05:10:45;18.27;;;8.70;;
6077;SDS011;3067;49.470;10.394;2023-09-07T05:13:12;18.20;;;8.53;;
6077;SDS011;3067;49.470;10.394;2023-09-07T05:15:46;10.80;;;7.50;;
6077;SDS011;3067;49.470;10.394;2023-09-07T05:18:13;17.50;;;8.03;;
6077;SDS011;3067;49.470;10.394;2023-09-07T05:20:40;9.87;;;8.40;;
6077;SDS011;3067;49.470;10.394;2023-09-07T05:23:11;11.63;;;7.83;;
6077;SDS011;3067;49.470;10.394;2023-09-07T05:25:42;12.80;;;8.87;;
6077;SDS011;3067;49.470;10.394;2023-09-07T05:28:11;12.93;;;7.80;;
6077;SDS011;3067;49.470;10.394;2023-09-07T05:30:39;11.43;;;8.60;;
6077;SDS011;3067;49.470;10.394;2023-09-07T05:33:06;13.07;;;8.03;;
6077;SDS011;3067;49.470;10.394;2023-09-07T05:35:35;18.40;;;8.10;;
6077;SDS011;3067;49.470;10.394;2023-09-07T05:38:02;11.67;;;7.73;;
6077;SDS011;3067;49.470;10.394;2023-09-07T05:40:34;12.53;;;8.23;;
6077;SDS011;3067;49.470;10.394;2023-09-07T05:43:02;9.10;;;7.87;;
6077;SDS011;3067;49.470;10.394;2023-09-07T05:45:30;11.97;;;8.47;;
6077;SDS011;3067;49.470;10.394;2023-09-07T05:47:57;11.00;;;8.27;;
6077;SDS011;3067;49.470;10.394;2023-09-07T05:50:24;13.27;;;8.67;;
6077;SDS011;3067;49.470;10.394;2023-09-07T05:52:51;16.43;;;8.97;;
6077;SDS011;3067;49.470;10.394;2023-09-07T05:55:18;15.17;;;9.00;;
6077;SDS011;3067;49.470;10.394;2023-09-07T05:57:48;14.63;;;10.00;;
6077;SDS011;3067;49.470;10.394;2023-09-07T06:00:15;10.03;;;9.00;;
6077;SDS011;3067;49.470;10.394;2023-09-07T06:02:43;14.60;;;9.00;;
6077;SDS011;3067;49.470;10.394;2023-09-07T06:05:11;13.57;;;9.40;;
6077;SDS011;3067;49.470;10.394;2023-09-07T06:07:37;11.43;;;8.60;;
6077;SDS011;3067;49.470;10.394;2023-09-07T06:10:05;9.70;;;8.80;;
6077;SDS011;3067;49.470;10.394;2023-09-07T06:12:32;11.47;;;8.80;;
6077;SDS011;3067;49.470;10.394;2023-09-07T06:15:01;15.33;;;9.30;;
6077;SDS011;3067;49.470;10.394;2023-09-07T06:17:29;10.70;;;8.67;;
6077;SDS011;3067;49.470;10.394;2023-09-07T06:19:56;10.33;;;9.33;;
6077;SDS011;3067;49.470;10.394;2023-09-07T06:22:23;11.30;;;9.70;;
6077;SDS011;3067;49.470;10.394;2023-09-07T06:24:50;10.33;;;8.70;;
6077;SDS011;3067;49.470;10.394;2023-09-07T06:27:17;14.87;;;8.87;;
6077;SDS011;3067;49.470;10.394;2023-09-07T06:29:44;12.50;;;9.60;;
6077;SDS011;3067;49.470;10.394;2023-09-07T06:32:12;12.83;;;9.73;;
6077;SDS011;3067;49.470;10.394;2023-09-07T06:34:39;13.10;;;9.27;;
6077;SDS011;3067;49.470;10.394;2023-09-07T06:37:07;14.07;;;9.60;;
6077;SDS011;3067;49.470;10.394;2023-09-07T06:39:34;11.00;;;9.53;;
6077;SDS011;3067;49.470;10.394;2023-09-07T06:42:01;9.90;;;9.00;;
6077;SDS011;3067;49.470;10.394;2023-09-07T06:44:28;10.53;;;9.47;;
6077;SDS011;3067;49.470;10.394;2023-09-07T06:46:56;11.03;;;9.27;;
6077;SDS011;3067;49.470;10.394;2023-09-07T06:49:24;10.93;;;9.10;;
6077;SDS011;3067;49.470;10.394;2023-09-07T06:51:53;9.67;;;8.80;;
6077;SDS011;3067;49.470;10.394;2023-09-07T06:54:20;12.33;;;9.80;;
6077;SDS011;3067;49.470;10.394;2023-09-07T06:56:47;10.87;;;9.10;;
6077;SDS011;3067;49.470;10.394;2023-09-07T06:59:15;10.03;;;9.10;;
6077;SDS011;3067;49.470;10.394;2023-09-07T07:01:42;10.83;;;9.23;;
6077;SDS011;3067;49.470;10.394;2023-09-07T07:04:09;21.57;;;9.60;;
6077;SDS011;3067;49.470;10.394;2023-09-07T07:06:37;17.40;;;9.53;;
6077;SDS011;3067;49.470;10.394;2023-09-07T07:09:04;10.40;;;9.40;;
6077;SDS011;3067;49.470;10.394;2023-09-07T07:11:32;9.23;;;7.97;;
6077;SDS011;3067;49.470;10.394;2023-09-07T07:13:59;10.30;;;8.13;;
6077;SDS011;3067;49.470;10.394;2023-09-07T07:16:26;9.13;;;8.07;;
6077;SDS011;3067;49.470;10.394;2023-09-07T07:18:53;8.70;;;7.80;;
6077;SDS011;3067;49.470;10.394;2023-09-07T07:21:20;8.53;;;7.73;;
6077;SDS011;3067;49.470;10.394;2023-09-07T07:23:48;8.00;;;7.30;;
6077;SDS011;3067;49.470;10.394;2023-09-07T07:26:15;8.00;;;7.37;;
6077;SDS011;3067;49.470;10.394;2023-09-07T07:28:42;11.63;;;7.23;;
6077;SDS011;3067;49.470;10.394;2023-09-07T07:31:09;8.03;;;7.40;;
6077;SDS011;3067;49.470;10.394;2023-09-07T07:33:37;7.83;;;7.13;;
6077;SDS011;3067;49.470;10.394;2023-09-07T07:36:04;7.50;;;6.90;;
6077;SDS011;3067;49.470;10.394;2023-09-07T07:38:31;7.47;;;6.73;;
6077;SDS011;3067;49.470;10.394;2023-09-07T07:40:59;7.17;;;6.57;;
6077;SDS011;3067;49.470;10.394;2023-09-07T07:43:28;7.70;;;7.00;;
6077;SDS011;3067;49.470;10.394;2023-09-07T07:45:55;7.73;;;6.07;;
6077;SDS011;3067;49.470;10.394;2023-09-07T07:48:23;13.30;;;6.63;;
6077;SDS011;3067;49.470;10.394;2023-09-07T07:50:50;7.07;;;6.20;;
6077;SDS011;3067;49.470;10.394;2023-09-07T07:53:17;9.73;;;6.77;;
6077;SDS011;3067;49.470;10.394;2023-09-07T07:55:44;9.60;;;6.40;;
6077;SDS011;3067;49.470;10.394;2023-09-07T07:58:12;7.63;;;6.93;;
6077;SDS011;3067;49.470;10.394;2023-09-07T08:00:39;7.97;;;6.27;;
6077;SDS011;3067;49.470;10.394;2023-09-07T08:13:31;7.87;;;6.10;;
6077;SDS011;3067;49.470;10.394;2023-09-07T08:15:59;8.80;;;5.97;;
6077;SDS011;3067;49.470;10.394;2023-09-07T08:18:26;6.73;;;6.07;;
6077;SDS011;3067;49.470;10.394;2023-09-07T08:20:53;6.73;;;5.90;;
6077;SDS011;3067;49.470;10.394;2023-09-07T08:23:21;8.87;;;6.27;;
6077;SDS011;3067;49.470;10.394;2023-09-07T08:25:50;6.93;;;6.33;;
6077;SDS011;3067;49.470;10.394;2023-09-07T08:28:17;12.00;;;5.83;;
6077;SDS011;3067;49.470;10.394;2023-09-07T08:30:49;6.77;;;6.17;;
6077;SDS011;3067;49.470;10.394;2023-09-07T08:33:18;7.53;;;5.97;;
6077;SDS011;3067;49.470;10.394;2023-09-07T08:35:51;6.57;;;5.90;;
6077;SDS011;3067;49.470;10.394;2023-09-07T08:38:19;7.77;;;5.67;;
6077;SDS011;3067;49.470;10.394;2023-09-07T08:40:49;6.10;;;5.53;;
6077;SDS011;3067;49.470;10.394;2023-09-07T08:43:17;6.70;;;6.10;;
6077;SDS011;3067;49.470;10.394;2023-09-07T08:45:48;6.00;;;5.50;;
6077;SDS011;3067;49.470;10.394;2023-09-07T08:48:25;5.83;;;5.43;;
6077;SDS011;3067;49.470;10.394;2023-09-07T08:50:54;6.37;;;5.77;;
6077;SDS011;3067;49.470;10.394;2023-09-07T08:53:22;15.33;;;5.77;;
6077;SDS011;3067;49.470;10.394;2023-09-07T08:55:49;5.93;;;5.17;;
6077;SDS011;3067;49.470;10.394;2023-09-07T08:58:16;5.73;;;5.30;;
6077;SDS011;3067;49.470;10.394;2023-09-07T09:00:43;6.97;;;5.83;;
6077;SDS011;3067;49.470;10.394;2023-09-07T09:03:12;5.47;;;5.07;;
6077;SDS011;3067;49.470;10.394;2023-09-07T09:05:39;6.20;;;5.70;;
6077;SDS011;3067;49.470;10.394;2023-09-07T09:08:07;5.53;;;5.00;;
6077;SDS011;3067;49.470;10.394;2023-09-07T09:10:34;5.77;;;5.40;;
6077;SDS011;3067;49.470;10.394;2023-09-07T09:13:04;11.93;;;5.27;;
6077;SDS011;3067;49.470;10.394;2023-09-07T09:15:31;5.87;;;5.30;;
6077;SDS011;3067;49.470;10.394;2023-09-07T09:18:08;7.03;;;5.23;;
6077;SDS011;3067;49.470;10.394;2023-09-07T09:20:38;6.00;;;5.40;;
6077;SDS011;3067;49.470;10.394;2023-09-07T09:23:05;5.80;;;5.40;;
6077;SDS011;3067;49.470;10.394;2023-09-07T09:25:32;5.63;;;4.90;;
6077;SDS011;3067;49.470;10.394;2023-09-07T09:27:59;7.03;;;4.87;;
6077;SDS011;3067;49.470;10.394;2023-09-07T09:30:26;5.13;;;4.83;;
6077;SDS011;3067;49.470;10.394;2023-09-07T09:32:53;4.87;;;4.60;;
6077;SDS011;3067;49.470;10.394;2023-09-07T09:35:20;7.00;;;5.30;;
6077;SDS011;3067;49.470;10.394;2023-09-07T09:37:51;5.20;;;4.70;;
6077;SDS011;3067;49.470;10.394;2023-09-07T09:40:18;4.77;;;4.47;;
6077;SDS011;3067;49.470;10.394;2023-09-07T09:42:45;5.20;;;4.27;;
6077;SDS011;3067;49.470;10.394;2023-09-07T09:45:13;4.63;;;4.27;;
6077;SDS011;3067;49.470;10.394;2023-09-07T09:47:41;4.80;;;4.60;;
6077;SDS011;3067;49.470;10.394;2023-09-07T09:50:09;10.07;;;4.47;;
6077;SDS011;3067;49.470;10.394;2023-09-07T09:52:38;4.60;;;4.30;;
6077;SDS011;3067;49.470;10.394;2023-09-07T09:55:07;4.90;;;4.50;;
6077;SDS011;3067;49.470;10.394;2023-09-07T09:57:38;5.60;;;4.77;;
6077;SDS011;3067;49.470;10.394;2023-09-07T10:00:05;8.13;;;4.40;;
6077;SDS011;3067;49.470;10.394;2023-09-07T10:02:45;4.93;;;4.30;;
6077;SDS011;3067;49.470;10.394;2023-09-07T10:05:20;5.20;;;4.80;;
6077;SDS011;3067;49.470;10.394;2023-09-07T10:07:49;10.10;;;4.70;;
6077;SDS011;3067;49.470;10.394;2023-09-07T10:10:18;4.70;;;4.40;;
6077;SDS011;3067;49.470;10.394;2023-09-07T10:12:50;4.97;;;4.67;;
6077;SDS011;3067;49.470;10.394;2023-09-07T10:15:20;6.83;;;4.03;;
6077;SDS011;3067;49.470;10.394;2023-09-07T10:17:48;5.17;;;4.77;;
6077;SDS011;3067;49.470;10.394;2023-09-07T10:20:18;4.90;;;4.50;;
6077;SDS011;3067;49.470;10.394;2023-09-07T10:22:48;4.67;;;4.47;;
6077;SDS011;3067;49.470;10.394;2023-09-07T10:25:21;11.30;;;4.30;;
6077;SDS011;3067;49.470;10.394;2023-09-07T10:27:48;4.63;;;4.23;;
6077;SDS011;3067;49.470;10.394;2023-09-07T10:30:16;5.37;;;4.40;;
6077;SDS011;3067;49.470;10.394;2023-09-07T10:32:49;4.53;;;4.23;;
6077;SDS011;3067;49.470;10.394;2023-09-07T10:35:16;4.53;;;4.13;;
6077;SDS011;3067;49.470;10.394;2023-09-07T10:37:47;4.67;;;4.27;;
6077;SDS011;3067;49.470;10.394;2023-09-07T10:40:18;4.47;;;4.17;;
6077;SDS011;3067;49.470;10.394;2023-09-07T10:42:47;4.33;;;4.10;;
6077;SDS011;3067;49.470;10.394;2023-09-07T10:45:15;4.60;;;4.30;;
6077;SDS011;3067;49.470;10.394;2023-09-07T10:47:43;4.20;;;3.83;;
6077;SDS011;3067;49.470;10.394;2023-09-07T10:50:11;6.67;;;4.30;;
6077;SDS011;3067;49.470;10.394;2023-09-07T10:52:39;4.87;;;4.47;;
6077;SDS011;3067;49.470;10.394;2023-09-07T10:55:08;7.37;;;4.20;;
6077;SDS011;3067;49.470;10.394;2023-09-07T10:57:44;6.03;;;4.10;;
6077;SDS011;3067;49.470;10.394;2023-09-07T11:00:13;4.40;;;4.10;;
6077;SDS011;3067;49.470;10.394;2023-09-07T11:02:41;6.47;;;4.00;;
6077;SDS011;3067;49.470;10.394;2023-09-07T11:05:10;4.20;;;4.00;;
6077;SDS011;3067;49.470;10.394;2023-09-07T11:07:37;4.30;;;3.90;;
6077;SDS011;3067;49.470;10.394;2023-09-07T11:10:09;4.33;;;3.93;;
6077;SDS011;3067;49.470;10.394;2023-09-07T11:12:36;4.53;;;3.77;;
6077;SDS011;3067;49.470;10.394;2023-09-07T11:15:07;4.87;;;4.00;;
6077;SDS011;3067;49.470;10.394;2023-09-07T11:17:36;9.33;;;4.47;;
6077;SDS011;3067;49.470;10.394;2023-09-07T11:20:06;6.40;;;3.80;;
6077;SDS011;3067;49.470;10.394;2023-09-07T11:22:35;4.75;;;3.88;;
6077;SDS011;3067;49.470;10.394;2023-09-07T11:25:04;6.40;;;4.35;;
6077;SDS011;3067;49.470;10.394;2023-09-07T11:27:31;4.60;;;4.30;;
6077;SDS011;3067;49.470;10.394;2023-09-07T11:29:58;3.95;;;3.75;;
6077;SDS011;3067;49.470;10.394;2023-09-07T11:32:34;4.30;;;3.92;;
6077;SDS011;3067;49.470;10.394;2023-09-07T11:35:01;4.60;;;4.30;;
6077;SDS011;3067;49.470;10.394;2023-09-07T11:37:32;4.60;;;4.30;;
6077;SDS011;3067;49.470;10.394;2023-09-07T11:40:00;5.82;;;3.90;;
6077;SDS011;3067;49.470;10.394;2023-09-07T11:42:36;6.35;;;3.90;;
6077;SDS011;3067;49.470;10.394;2023-09-07T11:45:03;7.60;;;4.35;;
6077;SDS011;3067;49.470;10.394;2023-09-07T11:47:33;5.50;;;4.53;;
6077;SDS011;3067;49.470;10.394;2023-09-07T11:50:00;4.10;;;3.90;;
6077;SDS011;3067;49.470;10.394;2023-09-07T11:52:28;4.53;;;4.22;;
6077;SDS011;3067;49.470;10.394;2023-09-07T11:54:55;4.32;;;4.00;;
6077;SDS011;3067;49.470;10.394;2023-09-07T11:57:22;4.65;;;4.28;;
6077;SDS011;3067;49.470;10.394;2023-09-07T11:59:50;5.55;;;4.07;;
6077;SDS011;3067;49.470;10.394;2023-09-07T12:02:17;3.72;;;3.63;;
6077;SDS011;3067;49.470;10.394;2023-09-07T12:04:47;3.60;;;3.50;;
6077;SDS011;3067;49.470;10.394;2023-09-07T12:07:14;4.03;;;3.80;;
6077;SDS011;3067;49.470;10.394;2023-09-07T12:09:42;7.85;;;3.80;;
6077;SDS011;3067;49.470;10.394;2023-09-07T12:12:09;4.32;;;4.03;;
6077;SDS011;3067;49.470;10.394;2023-09-07T12:14:36;3.75;;;3.55;;
6077;SDS011;3067;49.470;10.394;2023-09-07T12:17:03;3.95;;;3.65;;
6077;SDS011;3067;49.470;10.394;2023-09-07T12:19:31;3.90;;;3.67;;
6077;SDS011;3067;49.470;10.394;2023-09-07T12:21:59;5.25;;;3.58;;
6077;SDS011;3067;49.470;10.394;2023-09-07T12:24:26;4.00;;;3.80;;
6077;SDS011;3067;49.470;10.394;2023-09-07T12:26:53;4.38;;;3.97;;
6077;SDS011;3067;49.470;10.394;2023-09-07T12:29:20;3.67;;;3.45;;
6077;SDS011;3067;49.470;10.394;2023-09-07T12:31:47;3.55;;;3.45;;
6077;SDS011;3067;49.470;10.394;2023-09-07T12:34:14;4.07;;;3.78;;
6077;SDS011;3067;49.470;10.394;2023-09-07T12:36:41;3.40;;;3.30;;
6077;SDS011;3067;49.470;10.394;2023-09-07T12:39:10;3.40;;;3.30;;
6077;SDS011;3067;49.470;10.394;2023-09-07T12:41:38;3.35;;;3.13;;
6077;SDS011;3067;49.470;10.394;2023-09-07T12:44:05;3.75;;;3.28;;
6077;SDS011;3067;49.470;10.394;2023-09-07T12:46:33;3.95;;;3.75;;
6077;SDS011;3067;49.470;10.394;2023-09-07T12:49:00;3.97;;;3.10;;
6077;SDS011;3067;49.470;10.394;2023-09-07T12:51:27;3.05;;;2.95;;
6077;SDS011;3067;49.470;10.394;2023-09-07T12:53:54;3.47;;;3.38;;
6077;SDS011;3067;49.470;10.394;2023-09-07T12:56:23;4.82;;;3.10;;
6077;SDS011;3067;49.470;10.394;2023-09-07T12:58:50;3.33;;;3.17;;
6077;SDS011;3067;49.470;10.394;2023-09-07T13:01:18;3.10;;;3.00;;
6077;SDS011;3067;49.470;10.394;2023-09-07T13:03:45;3.60;;;3.28;;
6077;SDS011;3067;49.470;10.394;2023-09-07T13:06:12;3.15;;;3.05;;
6077;SDS011;3067;49.470;10.394;2023-09-07T13:08:42;3.08;;;2.97;;
6077;SDS011;3067;49.470;10.394;2023-09-07T13:11:09;3.22;;;3.03;;
6077;SDS011;3067;49.470;10.394;2023-09-07T13:13:38;4.30;;;3.15;;
6077;SDS011;3067;49.470;10.394;2023-09-07T13:16:05;3.50;;;3.20;;
6077;SDS011;3067;49.470;10.394;2023-09-07T13:18:32;4.28;;;3.35;;
6077;SDS011;3067;49.470;10.394;2023-09-07T13:21:00;2.95;;;2.75;;
6077;SDS011;3067;49.470;10.394;2023-09-07T13:23:27;3.03;;;2.80;;
6077;SDS011;3067;49.470;10.394;2023-09-07T13:25:54;4.15;;;2.88;;
6077;SDS011;3067;49.470;10.394;2023-09-07T13:28:21;2.70;;;2.60;;
6077;SDS011;3067;49.470;10.394;2023-09-07T13:30:50;7.07;;;3.03;;
6077;SDS011;3067;49.470;10.394;2023-09-07T13:33:17;3.35;;;3.05;;
6077;SDS011;3067;49.470;10.394;2023-09-07T13:35:44;7.00;;;3.67;;
6077;SDS011;3067;49.470;10.394;2023-09-07T13:38:12;3.25;;;3.00;;
6077;SDS011;3067;49.470;10.394;2023-09-07T13:40:39;2.95;;;2.85;;
6077;SDS011;3067;49.470;10.394;2023-09-07T13:43:07;3.05;;;2.95;;
6077;SDS011;3067;49.470;10.394;2023-09-07T13:45:34;2.90;;;2.80;;
6077;SDS011;3067;49.470;10.394;2023-09-07T13:48:02;3.00;;;2.60;;
6077;SDS011;3067;49.470;10.394;2023-09-07T13:50:30;3.50;;;3.30;;
6077;SDS011;3067;49.470;10.394;2023-09-07T13:52:57;2.95;;;2.75;;
6077;SDS011;3067;49.470;10.394;2023-09-07T13:55:24;3.90;;;2.97;;
6077;SDS011;3067;49.470;10.394;2023-09-07T13:57:51;3.30;;;3.20;;
6077;SDS011;3067;49.470;10.394;2023-09-07T14:00:18;9.32;;;2.78;;
6077;SDS011;3067;49.470;10.394;2023-09-07T14:02:45;2.72;;;2.63;;
6077;SDS011;3067;49.470;10.394;2023-09-07T14:05:14;5.30;;;3.17;;
6077;SDS011;3067;49.470;10.394;2023-09-07T14:07:41;3.95;;;2.70;;
6077;SDS011;3067;49.470;10.394;2023-09-07T14:10:08;2.90;;;2.80;;
6077;SDS011;3067;49.470;10.394;2023-09-07T14:17:39;3.55;;;2.60;;
6077;SDS011;3067;49.470;10.394;2023-09-07T14:20:06;2.85;;;2.70;;
6077;SDS011;3067;49.470;10.394;2023-09-07T14:22:35;3.53;;;2.88;;
6077;SDS011;3067;49.470;10.394;2023-09-07T14:25:02;8.63;;;2.83;;
6077;SDS011;3067;49.470;10.394;2023-09-07T14:27:29;2.58;;;2.58;;
6077;SDS011;3067;49.470;10.394;2023-09-07T14:29:57;3.10;;;2.90;;
6077;SDS011;3067;49.470;10.394;2023-09-07T14:32:24;3.33;;;2.75;;
6077;SDS011;3067;49.470;10.394;2023-09-07T14:34:52;3.00;;;2.72;;
6077;SDS011;3067;49.470;10.394;2023-09-07T14:37:19;2.55;;;2.45;;
6077;SDS011;3067;49.470;10.394;2023-09-07T14:39:47;4.53;;;2.78;;
6077;SDS011;3067;49.470;10.394;2023-09-07T14:42:15;2.58;;;2.45;;
6077;SDS011;3067;49.470;10.394;2023-09-07T14:44:44;2.83;;;2.70;;
6077;SDS011;3067;49.470;10.394;2023-09-07T14:47:12;2.88;;;2.63;;
6077;SDS011;3067;49.470;10.394;2023-09-07T14:49:39;2.80;;;2.70;;
6077;SDS011;3067;49.470;10.394;2023-09-07T14:52:06;3.20;;;3.00;;
6077;SDS011;3067;49.470;10.394;2023-09-07T14:54:33;3.25;;;2.40;;
6077;SDS011;3067;49.470;10.394;2023-09-07T14:57:02;3.13;;;2.85;;
6077;SDS011;3067;49.470;10.394;2023-09-07T14:59:29;2.60;;;2.50;;
6077;SDS011;3067;49.470;10.394;2023-09-07T15:01:56;2.40;;;2.40;;
6077;SDS011;3067;49.470;10.394;2023-09-07T15:04:23;2.45;;;2.35;;
6077;SDS011;3067;49.470;10.394;2023-09-07T15:06:50;5.78;;;2.45;;
6077;SDS011;3067;49.470;10.394;2023-09-07T15:09:18;2.75;;;2.28;;
6077;SDS011;3067;49.470;10.394;2023-09-07T15:11:45;2.55;;;2.40;;
6077;SDS011;3067;49.470;10.394;2023-09-07T15:14:13;2.17;;;2.08;;
6077;SDS011;3067;49.470;10.394;2023-09-07T15:16:40;2.47;;;2.38;;
6077;SDS011;3067;49.470;10.394;2023-09-07T15:19:07;2.40;;;2.40;;
6077;SDS011;3067;49.470;10.394;2023-09-07T15:21:34;4.47;;;2.35;;
6077;SDS011;3067;49.470;10.394;2023-09-07T15:24:01;2.47;;;2.38;;